createdAt,value
2022-12-08T00:01:10.840Z,65.55
2022-12-08T00:03:38.271Z,64.10
2022-12-08T00:06:26.929Z,65.25
2022-12-08T00:09:12.223Z,81.45
2022-12-08T00:11:39.521Z,81.45
2022-12-08T00:14:06.188Z,87.97
2022-12-08T00:16:33.288Z,96.13
2022-12-08T00:18:59.971Z,96.32
2022-12-08T00:21:26.661Z,94.25
2022-12-08T00:23:56.123Z,96.07
2022-12-08T00:26:23.096Z,96.57
2022-12-08T00:28:49.801Z,94.97
2022-12-08T00:31:16.599Z,96.97
2022-12-08T00:33:43.413Z,93.28
2022-12-08T00:36:13.452Z,90.53
2022-12-08T00:38:41.419Z,91.47
2022-12-08T00:41:13.457Z,88.20
2022-12-08T00:43:40.276Z,88.80
2022-12-08T00:46:07.080Z,90.88
2022-12-08T00:48:34.069Z,90.25
2022-12-08T00:51:00.829Z,84.03
2022-12-08T00:53:27.631Z,94.45
2022-12-08T00:55:54.315Z,82.97
2022-12-08T00:58:21.059Z,90.30
2022-12-08T01:00:47.819Z,79.78
2022-12-08T01:03:15.280Z,80.47
2022-12-08T01:05:42.145Z,74.95
2022-12-08T01:08:09.262Z,75.70
2022-12-08T01:10:37.099Z,78.05
2022-12-08T01:13:04.517Z,79.82
2022-12-08T01:15:31.562Z,79.40
2022-12-08T01:17:58.287Z,78.57
2022-12-08T01:20:25.180Z,78.53
2022-12-08T01:22:52.266Z,72.22
2022-12-08T01:25:19.034Z,76.15
2022-12-08T01:27:45.744Z,74.60
2022-12-08T01:30:13.510Z,79.28
2022-12-08T01:32:40.285Z,74.55
2022-12-08T01:35:07.307Z,70.93
2022-12-08T01:37:34.244Z,69.65
2022-12-08T01:40:01.285Z,71.88
2022-12-08T01:42:29.882Z,78.68
2022-12-08T01:45:00.963Z,71.60
2022-12-08T01:47:41.424Z,73.93
2022-12-08T01:50:11.759Z,75.60
2022-12-08T01:52:44.639Z,75.15
2022-12-08T01:55:18.969Z,71.75
2022-12-08T01:57:50.769Z,72.03
2022-12-08T02:00:21.515Z,75.75
2022-12-08T02:03:23.308Z,70.00
2022-12-08T02:05:50.644Z,67.82
2022-12-08T02:08:18.238Z,63.03
2022-12-08T02:10:52.666Z,70.07
2022-12-08T02:13:21.538Z,61.28
2022-12-08T02:16:16.033Z,66.05
2022-12-08T02:19:07.994Z,67.70
2022-12-08T02:21:45.104Z,69.25
2022-12-08T02:24:30.322Z,61.35
2022-12-08T02:27:00.150Z,56.72
2022-12-08T02:29:51.079Z,62.70
2022-12-08T02:32:40.547Z,56.55
2022-12-08T02:35:14.506Z,56.10
2022-12-08T02:37:57.410Z,57.05
2022-12-08T02:40:33.997Z,60.88
2022-12-08T02:43:06.074Z,60.92
2022-12-08T02:45:45.453Z,55.13
2022-12-08T02:48:12.510Z,58.85
2022-12-08T02:50:39.466Z,59.33
2022-12-08T02:55:51.394Z,58.15
2022-12-08T02:58:53.025Z,59.25
2022-12-08T03:01:37.422Z,57.67
2022-12-08T03:04:29.725Z,57.15
2022-12-08T03:07:07.398Z,50.22
2022-12-08T03:09:43.469Z,52.85
2022-12-08T03:12:19.265Z,54.85
2022-12-08T03:14:51.047Z,58.40
2022-12-08T03:17:21.447Z,60.63
2022-12-08T03:19:49.234Z,51.30
2022-12-08T03:22:21.234Z,51.28
2022-12-08T03:24:49.301Z,56.92
2022-12-08T03:27:20.065Z,54.67
2022-12-08T03:29:48.478Z,54.58
2022-12-08T03:32:23.804Z,63.08
2022-12-08T03:34:53.025Z,62.28
2022-12-08T03:37:20.983Z,72.63
2022-12-08T03:39:48.506Z,72.82
2022-12-08T03:42:15.265Z,78.70
2022-12-08T03:44:41.994Z,88.40
2022-12-08T03:47:08.989Z,73.53
2022-12-08T03:49:35.703Z,78.65
2022-12-08T03:52:02.480Z,74.75
2022-12-08T03:54:29.207Z,67.63
2022-12-08T03:56:55.946Z,80.53
2022-12-08T03:59:22.649Z,89.00
2022-12-08T04:01:49.449Z,78.00
2022-12-08T04:04:16.287Z,77.57
2022-12-08T04:06:43.036Z,74.28
2022-12-08T04:09:09.824Z,75.25
2022-12-08T04:11:36.572Z,73.32
2022-12-08T04:14:03.370Z,74.20
2022-12-08T04:16:30.230Z,68.32
2022-12-08T04:18:57.020Z,67.25
2022-12-08T04:21:23.741Z,67.50
2022-12-08T04:23:51.033Z,69.82
2022-12-08T04:26:18.887Z,71.53
2022-12-08T04:28:45.588Z,78.40
2022-12-08T04:31:12.566Z,66.40
2022-12-08T04:33:39.714Z,75.18
2022-12-08T04:36:07.513Z,70.00
2022-12-08T04:38:34.799Z,67.82
2022-12-08T04:41:02.155Z,67.57
2022-12-08T04:43:29.044Z,77.57
2022-12-08T04:45:56.077Z,63.92
2022-12-08T04:48:22.963Z,63.65
2022-12-08T04:50:49.709Z,67.10
2022-12-08T04:53:16.544Z,67.03
2022-12-08T04:55:45.143Z,69.97
2022-12-08T04:58:13.821Z,58.28
2022-12-08T05:00:41.517Z,68.55
2022-12-08T05:03:09.117Z,70.63
2022-12-08T05:05:36.114Z,62.75
2022-12-08T05:08:03.138Z,64.05
2022-12-08T05:10:29.963Z,61.60
2022-12-08T05:12:58.740Z,64.55
2022-12-08T05:15:25.767Z,65.43
2022-12-08T05:17:52.464Z,65.18
2022-12-08T05:20:19.256Z,60.30
2022-12-08T05:22:46.007Z,60.47
2022-12-08T05:25:12.809Z,60.10
2022-12-08T05:27:39.515Z,63.97
2022-12-08T05:30:07.167Z,63.28
2022-12-08T05:32:34.132Z,62.40
2022-12-08T05:35:00.882Z,61.78
2022-12-08T05:37:27.751Z,55.83
2022-12-08T05:39:54.538Z,57.95
2022-12-08T05:42:24.768Z,55.78
2022-12-08T05:44:52.574Z,58.80
2022-12-08T05:47:19.614Z,55.83
2022-12-08T05:49:46.441Z,54.97
2022-12-08T05:52:13.393Z,64.32
2022-12-08T05:54:40.137Z,58.70
2022-12-08T05:57:06.930Z,60.67
2022-12-08T05:59:33.818Z,65.38
2022-12-08T06:02:00.759Z,60.55
2022-12-08T06:04:27.633Z,59.22
2022-12-08T06:06:54.428Z,61.22
2022-12-08T06:09:21.303Z,62.95
2022-12-08T06:11:48.117Z,68.82
2022-12-08T06:14:14.843Z,66.35
2022-12-08T06:16:41.630Z,66.72
2022-12-08T06:19:08.504Z,71.13
2022-12-08T06:21:35.299Z,68.03
2022-12-08T06:24:01.995Z,64.88
2022-12-08T06:26:28.998Z,71.30
2022-12-08T06:28:55.771Z,70.88
2022-12-08T06:31:24.701Z,72.00
2022-12-08T06:33:52.098Z,73.65
2022-12-08T06:36:21.400Z,66.82
2022-12-08T06:38:48.397Z,70.53
2022-12-08T06:41:15.222Z,73.20
2022-12-08T06:43:42.611Z,75.97
2022-12-08T06:46:12.852Z,72.97
2022-12-08T06:48:39.744Z,76.88
2022-12-08T06:51:09.674Z,68.40
2022-12-08T06:53:36.710Z,74.22
2022-12-08T06:56:03.922Z,80.47
2022-12-08T06:58:30.963Z,77.90
2022-12-08T07:00:57.768Z,76.25
2022-12-08T07:03:24.550Z,76.38
2022-12-08T07:06:00.239Z,77.00
2022-12-08T07:08:30.300Z,74.30
2022-12-08T07:10:57.127Z,76.07
2022-12-08T07:13:23.989Z,78.60
2022-12-08T07:15:50.788Z,72.45
2022-12-08T07:18:17.651Z,78.47
2022-12-08T07:20:44.409Z,74.43
2022-12-08T07:23:11.163Z,78.63
2022-12-08T07:25:37.961Z,78.93
2022-12-08T07:28:09.103Z,75.78
2022-12-08T07:30:35.954Z,82.35
2022-12-08T07:33:04.956Z,80.03
2022-12-08T07:35:34.211Z,79.20
2022-12-08T07:38:01.769Z,79.68
2022-12-08T07:40:28.542Z,79.00
2022-12-08T07:42:55.369Z,85.88
2022-12-08T07:45:25.683Z,83.72
2022-12-08T07:47:56.600Z,79.70
2022-12-08T07:50:23.306Z,77.53
2022-12-08T07:52:50.049Z,69.78
2022-12-08T07:55:17.005Z,78.50
2022-12-08T07:57:43.755Z,74.70
2022-12-08T08:00:11.275Z,85.75
2022-12-08T08:02:38.145Z,77.60
2022-12-08T08:05:05.444Z,74.68
2022-12-08T08:07:32.600Z,72.30
2022-12-08T08:09:59.419Z,71.22
2022-12-08T08:12:33.629Z,69.82
2022-12-08T08:15:01.497Z,69.00
2022-12-08T08:17:29.839Z,75.63
2022-12-08T08:19:57.304Z,79.82
2022-12-08T08:22:26.071Z,82.45
2022-12-08T08:24:53.282Z,77.30
2022-12-08T08:27:20.621Z,84.93
2022-12-08T08:29:47.447Z,89.05
2022-12-08T08:32:14.119Z,87.25
2022-12-08T08:34:40.828Z,81.85
2022-12-08T08:37:07.683Z,90.28
2022-12-08T08:39:34.634Z,89.55
2022-12-08T08:42:01.386Z,91.00
2022-12-08T08:44:28.370Z,97.25
2022-12-08T08:46:55.190Z,100.20
2022-12-08T08:49:22.050Z,97.05
2022-12-08T08:51:49.034Z,91.00
2022-12-08T08:54:15.859Z,101.47
2022-12-08T08:56:42.623Z,95.22
2022-12-08T08:59:12.304Z,97.90
2022-12-08T09:01:39.157Z,86.25
2022-12-08T09:04:06.157Z,91.85
2022-12-08T09:06:33.149Z,91.07
2022-12-08T09:08:59.922Z,86.63
2022-12-08T09:11:26.741Z,87.18
2022-12-08T09:13:54.901Z,84.25
2022-12-08T09:16:22.742Z,75.43
2022-12-08T09:18:49.766Z,82.45
2022-12-08T09:21:26.118Z,77.20
2022-12-08T09:23:57.989Z,75.93
2022-12-08T09:26:26.967Z,82.35
2022-12-08T09:28:55.244Z,74.47
2022-12-08T09:31:23.371Z,70.45
2022-12-08T09:33:53.676Z,77.10
2022-12-08T09:36:20.797Z,71.63
2022-12-08T09:38:49.130Z,75.93
2022-12-08T09:41:39.290Z,70.03
2022-12-08T09:44:33.838Z,68.88
2022-12-08T09:47:03.698Z,68.47
2022-12-08T09:49:39.618Z,67.97
2022-12-08T09:52:19.038Z,68.85
2022-12-08T09:54:45.839Z,69.68
2022-12-08T09:57:17.534Z,66.88
2022-12-08T09:59:51.524Z,64.97
2022-12-08T10:02:25.060Z,64.78
2022-12-08T10:04:55.444Z,69.07
2022-12-08T10:07:42.108Z,61.80
2022-12-08T10:10:38.086Z,65.00
2022-12-08T10:13:42.277Z,67.15
2022-12-08T10:16:23.091Z,63.65
2022-12-08T10:19:01.465Z,64.28
2022-12-08T10:21:31.662Z,58.60
2022-12-08T10:24:04.726Z,67.00
2022-12-08T10:26:33.136Z,66.40
2022-12-08T10:29:02.950Z,57.50
2022-12-08T10:31:31.574Z,63.00
2022-12-08T10:34:01.478Z,59.75
2022-12-08T10:36:48.628Z,61.25
2022-12-08T10:39:38.293Z,58.08
2022-12-08T10:42:09.940Z,58.60
2022-12-08T10:44:58.348Z,55.72
2022-12-08T10:47:27.706Z,51.83
2022-12-08T10:50:20.129Z,61.17
2022-12-08T10:53:14.049Z,63.83
2022-12-08T10:55:40.708Z,63.15
2022-12-08T10:58:35.726Z,63.25
2022-12-08T11:01:32.895Z,61.25
2022-12-08T11:04:05.217Z,59.75
2022-12-08T11:06:35.746Z,63.55
2022-12-08T11:09:04.943Z,64.40
2022-12-08T11:11:58.983Z,66.80
2022-12-08T11:14:50.635Z,64.22
2022-12-08T11:17:24.971Z,63.30
2022-12-08T11:20:22.836Z,66.88
2022-12-08T11:22:55.050Z,65.70
2022-12-08T11:25:27.514Z,57.92
2022-12-08T11:27:58.044Z,56.20
2022-12-08T11:30:24.718Z,54.63
2022-12-08T11:33:17.090Z,58.17
2022-12-08T11:35:46.887Z,59.13
2022-12-08T11:38:25.401Z,58.08
2022-12-08T11:41:17.987Z,57.30
2022-12-08T11:43:54.782Z,57.15
2022-12-08T11:46:31.949Z,59.22
2022-12-08T11:49:06.644Z,58.00
2022-12-08T11:51:44.751Z,63.60
2022-12-08T11:54:25.608Z,60.15
2022-12-08T11:57:01.912Z,58.05
2022-12-08T11:59:34.393Z,54.13
2022-12-08T12:02:03.099Z,55.95
2022-12-08T12:04:35.584Z,53.00
2022-12-08T12:07:26.379Z,53.55
2022-12-08T12:10:18.388Z,54.83
2022-12-08T12:12:58.319Z,50.03
2022-12-08T12:16:14.355Z,46.42
2022-12-08T12:18:47.724Z,45.80
2022-12-08T12:21:23.899Z,40.85
2022-12-08T12:23:56.059Z,46.15
2022-12-08T12:26:28.794Z,45.60
2022-12-08T12:28:57.899Z,48.65
2022-12-08T12:31:41.580Z,47.05
2022-12-08T12:34:14.979Z,46.30
2022-12-08T12:36:49.062Z,49.35
2022-12-08T12:39:23.315Z,45.47
2022-12-08T12:41:59.825Z,43.47
2022-12-08T12:44:29.604Z,66.63
2022-12-08T12:46:56.410Z,49.70
2022-12-08T12:49:38.153Z,47.20
2022-12-08T12:52:31.067Z,44.78
2022-12-08T12:54:57.892Z,47.40
2022-12-08T12:57:35.236Z,47.53
2022-12-08T13:00:01.984Z,43.60
2022-12-08T13:02:46.043Z,48.90
2022-12-08T13:05:31.768Z,45.65
2022-12-08T13:08:07.027Z,44.67
2022-12-08T13:10:35.588Z,44.50
2022-12-08T13:13:07.424Z,41.33
2022-12-08T13:15:40.385Z,40.33
2022-12-08T13:18:19.717Z,41.40
2022-12-08T13:20:50.596Z,42.45
2022-12-08T13:24:12.938Z,40.53
2022-12-08T13:26:49.987Z,37.50
2022-12-08T13:29:22.391Z,40.28
2022-12-08T13:31:53.701Z,34.58
2022-12-08T13:34:41.944Z,32.58
2022-12-08T13:37:11.473Z,37.33
2022-12-08T13:39:41.101Z,35.58
2022-12-08T13:42:30.534Z,37.45
2022-12-08T13:45:39.695Z,37.25
2022-12-08T13:50:36.597Z,35.88
2022-12-08T13:57:33.080Z,38.50
2022-12-08T14:00:08.568Z,34.35
2022-12-08T14:02:47.438Z,41.40
2022-12-08T14:05:18.962Z,40.47
2022-12-08T14:07:48.347Z,40.22
2022-12-08T14:10:41.841Z,41.92
2022-12-08T14:13:12.513Z,38.70
2022-12-08T14:15:40.043Z,41.67
2022-12-08T14:18:23.758Z,43.33
2022-12-08T14:21:20.894Z,45.45
2022-12-08T14:23:48.382Z,44.38
2022-12-08T14:26:15.205Z,44.10
2022-12-08T14:28:45.285Z,40.75
2022-12-08T14:31:14.775Z,48.35
2022-12-08T14:33:42.477Z,43.03
2022-12-08T14:36:11.007Z,46.58
2022-12-08T14:38:38.126Z,43.03
2022-12-08T14:41:08.555Z,50.92
2022-12-08T14:43:35.408Z,45.10
2022-12-08T14:46:18.639Z,44.50
2022-12-08T14:48:45.590Z,44.30
2022-12-08T14:51:25.900Z,45.35
2022-12-08T14:54:08.427Z,43.13
2022-12-08T14:56:46.603Z,46.22
2022-12-08T14:59:34.034Z,41.08
2022-12-08T15:02:16.153Z,41.10
2022-12-08T15:04:45.516Z,43.38
2022-12-08T15:07:18.875Z,44.92
2022-12-08T15:09:51.456Z,39.55
2022-12-08T15:12:27.045Z,45.00
2022-12-08T15:15:14.453Z,40.85
2022-12-08T15:17:44.092Z,38.60
2022-12-08T15:20:44.660Z,39.47
2022-12-08T15:23:21.828Z,41.63
2022-12-08T15:25:49.413Z,38.70
2022-12-08T15:28:19.304Z,48.25
2022-12-08T15:30:46.657Z,38.40
2022-12-08T15:33:13.630Z,49.17
2022-12-08T15:35:41.292Z,42.70
2022-12-08T15:38:17.519Z,42.03
2022-12-08T15:40:44.203Z,43.20
2022-12-08T15:43:14.084Z,47.60
2022-12-08T15:45:50.517Z,48.72
2022-12-08T15:48:29.756Z,47.92
2022-12-08T15:50:57.274Z,39.97
2022-12-08T15:53:24.063Z,46.78
2022-12-08T15:56:25.569Z,44.42
2022-12-08T15:58:53.606Z,42.05
2022-12-08T16:01:21.217Z,46.05
2022-12-08T16:09:38.825Z,43.95
2022-12-08T16:18:26.754Z,44.83
2022-12-08T16:23:43.457Z,41.40
2022-12-08T16:26:28.582Z,43.47
2022-12-08T16:29:03.590Z,46.50
2022-12-08T16:31:31.114Z,46.80
2022-12-08T16:33:57.880Z,45.03
2022-12-08T16:36:24.750Z,44.78
2022-12-08T16:38:51.561Z,46.00
2022-12-08T16:41:36.763Z,41.53
2022-12-08T16:44:06.417Z,45.95
2022-12-08T16:46:33.233Z,50.78
2022-12-08T16:49:00.082Z,43.20
2022-12-08T16:51:27.615Z,44.20
2022-12-08T16:53:55.480Z,46.35
2022-12-08T16:56:28.734Z,44.00
2022-12-08T16:58:57.377Z,42.30
2022-12-08T17:01:24.327Z,44.83
2022-12-08T17:04:14.380Z,43.17
2022-12-08T17:06:37.834Z,49.88
2022-12-08T17:09:05.129Z,43.42
2022-12-08T17:11:37.483Z,45.30
2022-12-08T17:14:09.290Z,43.55
2022-12-08T17:16:36.310Z,53.97
2022-12-08T17:19:03.185Z,48.28
2022-12-08T17:21:30.244Z,47.25
2022-12-08T17:23:57.005Z,46.13
2022-12-08T17:26:24.085Z,46.30
2022-12-08T17:29:06.061Z,46.05
2022-12-08T17:31:33.140Z,42.88
2022-12-08T17:34:05.739Z,46.63
2022-12-08T17:36:32.540Z,44.42
2022-12-08T17:39:01.133Z,47.00
2022-12-08T17:41:29.419Z,43.08
2022-12-08T17:43:56.609Z,46.65
2022-12-08T17:46:24.344Z,51.90
2022-12-08T17:48:51.899Z,48.45
2022-12-08T17:51:19.244Z,46.10
2022-12-08T17:53:45.979Z,45.00
2022-12-08T17:56:18.834Z,49.33
2022-12-08T17:58:49.895Z,50.95
2022-12-08T18:01:21.705Z,45.05
2022-12-08T18:03:48.577Z,45.00
2022-12-08T18:06:17.423Z,47.20
2022-12-08T18:08:44.628Z,47.08
2022-12-08T18:11:14.699Z,53.38
2022-12-08T18:13:41.944Z,54.17
2022-12-08T18:16:09.080Z,46.20
2022-12-08T18:18:35.841Z,42.78
2022-12-08T18:21:02.582Z,52.22
2022-12-08T18:23:29.442Z,52.45
2022-12-08T18:25:56.147Z,44.75
2022-12-08T18:28:23.707Z,53.35
2022-12-08T18:30:50.910Z,47.53
2022-12-08T18:33:17.631Z,47.40
2022-12-08T18:35:44.436Z,46.70
2022-12-08T18:38:11.450Z,48.70
2022-12-08T18:40:38.268Z,45.47
2022-12-08T18:43:05.100Z,47.20
2022-12-08T18:45:31.838Z,51.92
2022-12-08T18:47:58.594Z,46.08
2022-12-08T18:50:25.266Z,50.63
2022-12-08T18:52:52.126Z,47.90
2022-12-08T18:55:18.884Z,51.30
2022-12-08T18:57:46.070Z,51.53
2022-12-08T19:00:15.563Z,53.80
2022-12-08T19:02:42.383Z,49.60
2022-12-08T19:05:12.032Z,50.17
2022-12-08T19:07:39.100Z,53.58
2022-12-08T19:10:06.925Z,46.13
2022-12-08T19:12:34.061Z,47.38
2022-12-08T19:15:01.039Z,45.30
2022-12-08T19:17:29.683Z,51.28
2022-12-08T19:19:56.547Z,49.53
2022-12-08T19:22:23.525Z,47.42
2022-12-08T19:24:50.294Z,49.88
2022-12-08T19:27:17.212Z,52.10
2022-12-08T19:29:44.261Z,44.45
2022-12-08T19:32:11.032Z,48.28
2022-12-08T19:34:37.838Z,47.75
2022-12-08T19:37:04.665Z,46.20
2022-12-08T19:39:49.832Z,49.15
2022-12-08T19:42:38.015Z,53.10
2022-12-08T19:45:08.469Z,49.08
2022-12-08T19:47:35.346Z,51.38
2022-12-08T19:50:20.771Z,54.15
2022-12-08T19:52:47.479Z,50.67
2022-12-08T19:55:14.394Z,54.42
2022-12-08T19:57:41.688Z,53.72
2022-12-08T20:00:10.525Z,52.03
2022-12-08T20:02:37.522Z,50.83
2022-12-08T20:05:05.899Z,50.67
2022-12-08T20:07:32.722Z,53.10
2022-12-08T20:09:59.470Z,53.55
2022-12-08T20:12:26.595Z,46.60
2022-12-08T20:14:53.370Z,53.67
2022-12-08T20:17:20.149Z,50.83
2022-12-08T20:19:47.208Z,52.92
2022-12-08T20:22:13.958Z,54.90
2022-12-08T20:24:40.724Z,53.15
2022-12-08T20:27:07.637Z,46.42
2022-12-08T20:29:34.433Z,51.50
2022-12-08T20:32:01.279Z,46.25
2022-12-08T20:34:28.082Z,49.22
2022-12-08T20:36:54.946Z,46.95
2022-12-08T20:39:21.729Z,52.90
2022-12-08T20:41:49.298Z,52.55
2022-12-08T20:44:16.277Z,50.97
2022-12-08T20:46:49.055Z,47.50
2022-12-08T20:49:16.482Z,48.83
2022-12-08T20:51:44.479Z,55.63
2022-12-08T20:54:11.525Z,50.20
2022-12-08T20:56:42.111Z,52.65
2022-12-08T20:59:17.837Z,50.45
2022-12-08T21:01:45.156Z,48.85
2022-12-08T21:04:13.442Z,50.50
2022-12-08T21:06:40.354Z,49.92
2022-12-08T21:09:07.705Z,50.42
2022-12-08T21:11:35.580Z,50.60
2022-12-08T21:14:02.805Z,48.95
2022-12-08T21:16:30.001Z,47.60
2022-12-08T21:18:57.096Z,53.28
2022-12-08T21:21:24.160Z,46.97
2022-12-08T21:23:51.023Z,52.08
2022-12-08T21:26:20.269Z,53.90
2022-12-08T21:28:47.672Z,50.85
2022-12-08T21:31:18.838Z,57.08
2022-12-08T21:33:45.815Z,48.10
2022-12-08T21:36:15.027Z,53.97
2022-12-08T21:38:42.633Z,52.28
2022-12-08T21:41:12.909Z,51.55
2022-12-08T21:43:39.775Z,47.75
2022-12-08T21:46:06.944Z,51.80
2022-12-08T21:48:33.807Z,50.90
2022-12-08T21:51:05.015Z,49.33
2022-12-08T21:53:32.050Z,52.58
2022-12-08T21:55:58.846Z,52.85
2022-12-08T21:58:26.393Z,51.22
2022-12-08T22:00:53.567Z,55.78
2022-12-08T22:03:20.464Z,50.30
2022-12-08T22:05:47.500Z,53.70
2022-12-08T22:08:14.484Z,52.10
2022-12-08T22:10:46.292Z,52.67
2022-12-08T22:13:13.210Z,55.03
2022-12-08T22:15:39.975Z,46.80
2022-12-08T22:18:07.008Z,55.55
2022-12-08T22:20:35.382Z,54.08
2022-12-08T22:23:04.162Z,52.45
2022-12-08T22:25:30.980Z,52.13
2022-12-08T22:27:57.798Z,50.83
2022-12-08T22:30:24.553Z,51.83
2022-12-08T22:32:51.318Z,47.25
2022-12-08T22:35:18.212Z,54.20
2022-12-08T22:37:48.430Z,55.17
2022-12-08T22:40:15.605Z,60.17
2022-12-08T22:42:42.313Z,51.50
2022-12-08T22:45:09.464Z,56.03
2022-12-08T22:47:36.326Z,57.70
2022-12-08T22:50:03.573Z,52.08
2022-12-08T22:52:31.083Z,53.25
2022-12-08T22:54:57.757Z,52.00
2022-12-08T22:57:24.420Z,52.35
2022-12-08T22:59:51.205Z,53.15
2022-12-08T23:02:17.953Z,50.10
2022-12-08T23:04:46.503Z,51.50
2022-12-08T23:07:13.566Z,50.63
2022-12-08T23:09:41.100Z,48.83
2022-12-08T23:12:08.234Z,51.35
2022-12-08T23:14:35.412Z,56.72
2022-12-08T23:17:02.155Z,55.33
2022-12-08T23:19:28.874Z,53.22
2022-12-08T23:21:55.639Z,51.53
2022-12-08T23:24:22.310Z,53.58
2022-12-08T23:26:51.906Z,53.25
2022-12-08T23:29:18.775Z,53.10
2022-12-08T23:31:45.822Z,54.05
2022-12-08T23:34:12.688Z,59.25
2022-12-08T23:36:39.498Z,54.63
2022-12-08T23:39:06.797Z,58.80
2022-12-08T23:41:33.735Z,65.47
2022-12-08T23:44:00.600Z,56.80
2022-12-08T23:46:27.549Z,61.85
2022-12-08T23:48:54.366Z,60.75
2022-12-08T23:51:21.663Z,57.60
2022-12-08T23:53:48.384Z,55.90
2022-12-08T23:56:16.912Z,63.13
2022-12-08T23:58:45.076Z,61.55
